sensor_id;sensor_type;location;lat;lon;timestamp;P1;durP1;ratioP1;P2;durP2;ratioP2
67028;SDS011;53934;52.142;11.738;2022-07-06T00:00:16;12.13;;;2.60;;
67028;SDS011;53934;52.142;11.738;2022-07-06T00:02:42;3.25;;;1.40;;
67028;SDS011;53934;52.142;11.738;2022-07-06T00:05:10;7.50;;;1.55;;
67028;SDS011;53934;52.142;11.738;2022-07-06T00:07:36;3.72;;;1.63;;
67028;SDS011;53934;52.142;11.738;2022-07-06T00:10:03;3.88;;;1.80;;
67028;SDS011;53934;52.142;11.738;2022-07-06T00:12:30;4.50;;;1.48;;
67028;SDS011;53934;52.142;11.738;2022-07-06T00:14:56;5.10;;;1.90;;
67028;SDS011;53934;52.142;11.738;2022-07-06T00:17:22;3.45;;;1.88;;
67028;SDS011;53934;52.142;11.738;2022-07-06T00:19:49;7.57;;;1.30;;
67028;SDS011;53934;52.142;11.738;2022-07-06T00:22:16;5.93;;;1.48;;
67028;SDS011;53934;52.142;11.738;2022-07-06T00:24:43;4.80;;;1.48;;
67028;SDS011;53934;52.142;11.738;2022-07-06T00:27:09;3.60;;;1.92;;
67028;SDS011;53934;52.142;11.738;2022-07-06T00:29:35;7.55;;;1.60;;
67028;SDS011;53934;52.142;11.738;2022-07-06T00:32:02;5.78;;;1.65;;
67028;SDS011;53934;52.142;11.738;2022-07-06T00:34:29;3.97;;;1.40;;
67028;SDS011;53934;52.142;11.738;2022-07-06T00:36:55;6.05;;;1.67;;
67028;SDS011;53934;52.142;11.738;2022-07-06T00:39:23;5.65;;;1.25;;
67028;SDS011;53934;52.142;11.738;2022-07-06T00:44:20;4.60;;;1.55;;
67028;SDS011;53934;52.142;11.738;2022-07-06T00:46:46;4.03;;;1.45;;
67028;SDS011;53934;52.142;11.738;2022-07-06T00:49:12;3.33;;;1.45;;
67028;SDS011;53934;52.142;11.738;2022-07-06T00:51:53;4.43;;;1.45;;
67028;SDS011;53934;52.142;11.738;2022-07-06T00:54:19;4.15;;;1.60;;
67028;SDS011;53934;52.142;11.738;2022-07-06T00:56:47;6.95;;;2.00;;
67028;SDS011;53934;52.142;11.738;2022-07-06T00:59:14;3.55;;;1.50;;
67028;SDS011;53934;52.142;11.738;2022-07-06T01:01:40;3.70;;;1.50;;
67028;SDS011;53934;52.142;11.738;2022-07-06T01:04:06;4.18;;;1.67;;
67028;SDS011;53934;52.142;11.738;2022-07-06T01:06:33;4.25;;;1.65;;
67028;SDS011;53934;52.142;11.738;2022-07-06T01:08:59;5.28;;;1.60;;
67028;SDS011;53934;52.142;11.738;2022-07-06T01:11:26;3.45;;;1.40;;
67028;SDS011;53934;52.142;11.738;2022-07-06T01:13:53;4.82;;;1.88;;
67028;SDS011;53934;52.142;11.738;2022-07-06T01:16:20;2.53;;;1.30;;
67028;SDS011;53934;52.142;11.738;2022-07-06T01:18:47;4.18;;;1.42;;
67028;SDS011;53934;52.142;11.738;2022-07-06T01:21:15;3.80;;;1.40;;
67028;SDS011;53934;52.142;11.738;2022-07-06T01:23:42;2.75;;;1.55;;
67028;SDS011;53934;52.142;11.738;2022-07-06T01:26:10;2.45;;;1.30;;
67028;SDS011;53934;52.142;11.738;2022-07-06T01:28:37;4.95;;;1.85;;
67028;SDS011;53934;52.142;11.738;2022-07-06T01:31:04;4.18;;;1.40;;
67028;SDS011;53934;52.142;11.738;2022-07-06T01:33:31;5.07;;;1.60;;
67028;SDS011;53934;52.142;11.738;2022-07-06T01:35:58;4.47;;;1.50;;
67028;SDS011;53934;52.142;11.738;2022-07-06T01:38:25;4.95;;;1.55;;
67028;SDS011;53934;52.142;11.738;2022-07-06T01:40:52;3.17;;;1.30;;
67028;SDS011;53934;52.142;11.738;2022-07-06T01:43:18;3.35;;;1.30;;
67028;SDS011;53934;52.142;11.738;2022-07-06T01:45:44;5.40;;;2.03;;
67028;SDS011;53934;52.142;11.738;2022-07-06T01:48:11;5.10;;;2.17;;
67028;SDS011;53934;52.142;11.738;2022-07-06T01:50:37;5.47;;;1.40;;
67028;SDS011;53934;52.142;11.738;2022-07-06T01:53:03;5.72;;;1.52;;
67028;SDS011;53934;52.142;11.738;2022-07-06T01:55:31;2.60;;;1.38;;
67028;SDS011;53934;52.142;11.738;2022-07-06T01:57:57;2.97;;;1.58;;
67028;SDS011;53934;52.142;11.738;2022-07-06T02:00:24;5.25;;;1.95;;
67028;SDS011;53934;52.142;11.738;2022-07-06T02:02:50;5.57;;;1.52;;
67028;SDS011;53934;52.142;11.738;2022-07-06T02:05:16;4.22;;;1.67;;
67028;SDS011;53934;52.142;11.738;2022-07-06T02:07:43;2.90;;;1.60;;
67028;SDS011;53934;52.142;11.738;2022-07-06T02:10:09;2.78;;;1.70;;
67028;SDS011;53934;52.142;11.738;2022-07-06T02:12:37;3.15;;;1.55;;
67028;SDS011;53934;52.142;11.738;2022-07-06T02:15:03;4.20;;;1.55;;
67028;SDS011;53934;52.142;11.738;2022-07-06T02:17:30;9.82;;;1.77;;
67028;SDS011;53934;52.142;11.738;2022-07-06T02:19:56;2.67;;;1.73;;
67028;SDS011;53934;52.142;11.738;2022-07-06T02:22:22;3.58;;;1.50;;
67028;SDS011;53934;52.142;11.738;2022-07-06T02:24:49;4.20;;;1.55;;
67028;SDS011;53934;52.142;11.738;2022-07-06T02:27:15;4.28;;;1.45;;
67028;SDS011;53934;52.142;11.738;2022-07-06T02:29:43;5.60;;;1.60;;
67028;SDS011;53934;52.142;11.738;2022-07-06T02:32:09;4.05;;;1.50;;
67028;SDS011;53934;52.142;11.738;2022-07-06T02:34:35;6.95;;;1.38;;
67028;SDS011;53934;52.142;11.738;2022-07-06T02:37:02;5.53;;;1.38;;
67028;SDS011;53934;52.142;11.738;2022-07-06T02:39:29;5.15;;;1.27;;
67028;SDS011;53934;52.142;11.738;2022-07-06T02:41:55;5.10;;;1.63;;
67028;SDS011;53934;52.142;11.738;2022-07-06T02:44:21;5.18;;;1.52;;
67028;SDS011;53934;52.142;11.738;2022-07-06T02:46:49;5.10;;;1.60;;
67028;SDS011;53934;52.142;11.738;2022-07-06T02:49:15;2.30;;;1.13;;
67028;SDS011;53934;52.142;11.738;2022-07-06T02:51:41;5.53;;;1.30;;
67028;SDS011;53934;52.142;11.738;2022-07-06T02:54:08;2.97;;;1.15;;
67028;SDS011;53934;52.142;11.738;2022-07-06T02:56:34;4.30;;;1.50;;
67028;SDS011;53934;52.142;11.738;2022-07-06T02:59:00;3.15;;;1.48;;
67028;SDS011;53934;52.142;11.738;2022-07-06T03:01:27;4.60;;;1.50;;
67028;SDS011;53934;52.142;11.738;2022-07-06T03:03:55;6.78;;;1.60;;
67028;SDS011;53934;52.142;11.738;2022-07-06T03:06:21;3.95;;;1.70;;
67028;SDS011;53934;52.142;11.738;2022-07-06T03:08:47;6.65;;;2.08;;
67028;SDS011;53934;52.142;11.738;2022-07-06T03:11:14;6.03;;;1.33;;
67028;SDS011;53934;52.142;11.738;2022-07-06T03:13:40;3.90;;;1.80;;
67028;SDS011;53934;52.142;11.738;2022-07-06T03:16:06;3.05;;;1.40;;
67028;SDS011;53934;52.142;11.738;2022-07-06T03:18:33;5.85;;;1.50;;
67028;SDS011;53934;52.142;11.738;2022-07-06T03:21:00;5.43;;;2.03;;
67028;SDS011;53934;52.142;11.738;2022-07-06T03:23:29;4.47;;;1.67;;
67028;SDS011;53934;52.142;11.738;2022-07-06T03:25:56;5.47;;;1.75;;
67028;SDS011;53934;52.142;11.738;2022-07-06T03:28:22;5.57;;;2.22;;
67028;SDS011;53934;52.142;11.738;2022-07-06T03:30:48;4.15;;;1.50;;
67028;SDS011;53934;52.142;11.738;2022-07-06T03:33:14;5.88;;;1.50;;
67028;SDS011;53934;52.142;11.738;2022-07-06T03:35:41;7.70;;;1.60;;
67028;SDS011;53934;52.142;11.738;2022-07-06T03:38:09;8.55;;;1.67;;
67028;SDS011;53934;52.142;11.738;2022-07-06T03:40:35;6.88;;;1.60;;
67028;SDS011;53934;52.142;11.738;2022-07-06T03:43:01;7.20;;;2.13;;
67028;SDS011;53934;52.142;11.738;2022-07-06T03:45:28;7.90;;;2.00;;
67028;SDS011;53934;52.142;11.738;2022-07-06T03:47:55;4.07;;;1.67;;
67028;SDS011;53934;52.142;11.738;2022-07-06T03:50:22;5.55;;;1.30;;
67028;SDS011;53934;52.142;11.738;2022-07-06T03:52:48;6.13;;;2.22;;
67028;SDS011;53934;52.142;11.738;2022-07-06T03:55:16;8.82;;;2.17;;
67028;SDS011;53934;52.142;11.738;2022-07-06T03:57:42;3.65;;;1.45;;
67028;SDS011;53934;52.142;11.738;2022-07-06T04:00:09;10.05;;;1.83;;
67028;SDS011;53934;52.142;11.738;2022-07-06T04:02:36;6.20;;;1.42;;
67028;SDS011;53934;52.142;11.738;2022-07-06T04:05:02;16.85;;;2.10;;
67028;SDS011;53934;52.142;11.738;2022-07-06T04:07:29;7.43;;;1.85;;
67028;SDS011;53934;52.142;11.738;2022-07-06T04:09:55;6.55;;;1.73;;
67028;SDS011;53934;52.142;11.738;2022-07-06T04:12:23;6.88;;;1.55;;
67028;SDS011;53934;52.142;11.738;2022-07-06T04:14:49;9.77;;;1.42;;
67028;SDS011;53934;52.142;11.738;2022-07-06T04:17:16;5.45;;;1.80;;
67028;SDS011;53934;52.142;11.738;2022-07-06T04:19:59;9.10;;;2.08;;
67028;SDS011;53934;52.142;11.738;2022-07-06T04:22:26;8.18;;;1.80;;
67028;SDS011;53934;52.142;11.738;2022-07-06T04:24:52;9.95;;;1.50;;
67028;SDS011;53934;52.142;11.738;2022-07-06T04:27:19;5.40;;;1.70;;
67028;SDS011;53934;52.142;11.738;2022-07-06T04:29:46;6.72;;;1.58;;
67028;SDS011;53934;52.142;11.738;2022-07-06T04:32:13;6.13;;;1.40;;
67028;SDS011;53934;52.142;11.738;2022-07-06T04:34:39;5.97;;;1.70;;
67028;SDS011;53934;52.142;11.738;2022-07-06T04:37:05;5.07;;;1.50;;
67028;SDS011;53934;52.142;11.738;2022-07-06T04:39:32;7.15;;;1.40;;
67028;SDS011;53934;52.142;11.738;2022-07-06T04:41:58;6.25;;;1.40;;
67028;SDS011;53934;52.142;11.738;2022-07-06T04:44:24;10.05;;;1.80;;
67028;SDS011;53934;52.142;11.738;2022-07-06T04:46:52;7.60;;;1.55;;
67028;SDS011;53934;52.142;11.738;2022-07-06T04:49:18;5.40;;;1.42;;
67028;SDS011;53934;52.142;11.738;2022-07-06T04:51:44;6.43;;;1.50;;
67028;SDS011;53934;52.142;11.738;2022-07-06T04:54:11;4.65;;;1.30;;
67028;SDS011;53934;52.142;11.738;2022-07-06T04:56:37;5.28;;;1.58;;
67028;SDS011;53934;52.142;11.738;2022-07-06T04:59:03;6.32;;;1.63;;
67028;SDS011;53934;52.142;11.738;2022-07-06T05:01:30;6.18;;;1.27;;
67028;SDS011;53934;52.142;11.738;2022-07-06T05:03:57;9.35;;;1.60;;
67028;SDS011;53934;52.142;11.738;2022-07-06T05:06:24;4.32;;;1.35;;
67028;SDS011;53934;52.142;11.738;2022-07-06T05:08:50;6.85;;;1.60;;
67028;SDS011;53934;52.142;11.738;2022-07-06T05:11:16;6.55;;;1.30;;
67028;SDS011;53934;52.142;11.738;2022-07-06T05:13:43;4.03;;;1.50;;
67028;SDS011;53934;52.142;11.738;2022-07-06T05:16:09;7.35;;;2.67;;
67028;SDS011;53934;52.142;11.738;2022-07-06T05:18:35;7.15;;;1.65;;
67028;SDS011;53934;52.142;11.738;2022-07-06T05:21:03;9.68;;;1.70;;
67028;SDS011;53934;52.142;11.738;2022-07-06T05:23:30;5.60;;;1.20;;
67028;SDS011;53934;52.142;11.738;2022-07-06T05:25:56;7.72;;;2.10;;
67028;SDS011;53934;52.142;11.738;2022-07-06T05:28:22;5.22;;;1.40;;
67028;SDS011;53934;52.142;11.738;2022-07-06T05:30:49;8.30;;;1.65;;
67028;SDS011;53934;52.142;11.738;2022-07-06T05:33:15;3.00;;;1.20;;
67028;SDS011;53934;52.142;11.738;2022-07-06T05:35:42;15.20;;;3.53;;
67028;SDS011;53934;52.142;11.738;2022-07-06T05:38:10;9.10;;;1.80;;
67028;SDS011;53934;52.142;11.738;2022-07-06T05:40:36;6.18;;;1.70;;
67028;SDS011;53934;52.142;11.738;2022-07-06T05:43:03;6.82;;;1.70;;
67028;SDS011;53934;52.142;11.738;2022-07-06T05:45:29;5.22;;;1.45;;
67028;SDS011;53934;52.142;11.738;2022-07-06T05:47:56;3.20;;;1.35;;
67028;SDS011;53934;52.142;11.738;2022-07-06T05:50:40;6.45;;;1.75;;
67028;SDS011;53934;52.142;11.738;2022-07-06T05:53:06;8.57;;;1.95;;
67028;SDS011;53934;52.142;11.738;2022-07-06T05:55:34;5.00;;;1.42;;
67028;SDS011;53934;52.142;11.738;2022-07-06T05:58:01;4.70;;;1.35;;
67028;SDS011;53934;52.142;11.738;2022-07-06T06:00:27;3.67;;;1.30;;
67028;SDS011;53934;52.142;11.738;2022-07-06T06:02:54;2.45;;;1.50;;
67028;SDS011;53934;52.142;11.738;2022-07-06T06:05:20;5.22;;;1.30;;
67028;SDS011;53934;52.142;11.738;2022-07-06T06:07:47;5.43;;;1.27;;
67028;SDS011;53934;52.142;11.738;2022-07-06T06:10:16;5.32;;;1.48;;
67028;SDS011;53934;52.142;11.738;2022-07-06T06:12:44;6.88;;;1.67;;
67028;SDS011;53934;52.142;11.738;2022-07-06T06:15:11;7.13;;;2.33;;
67028;SDS011;53934;52.142;11.738;2022-07-06T06:17:38;5.75;;;1.15;;
67028;SDS011;53934;52.142;11.738;2022-07-06T06:20:06;10.40;;;1.30;;
67028;SDS011;53934;52.142;11.738;2022-07-06T06:22:43;7.28;;;1.50;;
67028;SDS011;53934;52.142;11.738;2022-07-06T06:25:10;5.40;;;1.38;;
67028;SDS011;53934;52.142;11.738;2022-07-06T06:27:36;5.60;;;1.23;;
67028;SDS011;53934;52.142;11.738;2022-07-06T06:30:04;3.65;;;1.17;;
67028;SDS011;53934;52.142;11.738;2022-07-06T06:32:31;4.70;;;1.48;;
67028;SDS011;53934;52.142;11.738;2022-07-06T06:34:58;5.63;;;1.23;;
67028;SDS011;53934;52.142;11.738;2022-07-06T06:37:24;5.55;;;1.27;;
67028;SDS011;53934;52.142;11.738;2022-07-06T06:39:50;4.05;;;1.85;;
67028;SDS011;53934;52.142;11.738;2022-07-06T06:42:17;3.22;;;1.55;;
67028;SDS011;53934;52.142;11.738;2022-07-06T06:44:43;5.03;;;1.35;;
67028;SDS011;53934;52.142;11.738;2022-07-06T06:47:11;6.70;;;1.38;;
67028;SDS011;53934;52.142;11.738;2022-07-06T06:49:37;5.60;;;1.13;;
67028;SDS011;53934;52.142;11.738;2022-07-06T06:52:03;3.45;;;1.30;;
67028;SDS011;53934;52.142;11.738;2022-07-06T06:54:30;5.03;;;1.20;;
67028;SDS011;53934;52.142;11.738;2022-07-06T06:56:56;5.25;;;1.10;;
67028;SDS011;53934;52.142;11.738;2022-07-06T06:59:23;6.20;;;1.30;;
67028;SDS011;53934;52.142;11.738;2022-07-06T07:01:49;4.32;;;1.20;;
67028;SDS011;53934;52.142;11.738;2022-07-06T07:04:17;6.57;;;1.13;;
67028;SDS011;53934;52.142;11.738;2022-07-06T07:06:43;4.93;;;1.05;;
67028;SDS011;53934;52.142;11.738;2022-07-06T07:09:10;13.00;;;1.35;;
67028;SDS011;53934;52.142;11.738;2022-07-06T07:11:36;2.28;;;0.90;;
67028;SDS011;53934;52.142;11.738;2022-07-06T07:14:02;5.32;;;0.88;;
67028;SDS011;53934;52.142;11.738;2022-07-06T07:16:29;4.30;;;1.10;;
67028;SDS011;53934;52.142;11.738;2022-07-06T07:18:55;6.20;;;1.17;;
67028;SDS011;53934;52.142;11.738;2022-07-06T07:21:23;5.07;;;1.10;;
67028;SDS011;53934;52.142;11.738;2022-07-06T07:23:49;2.30;;;1.00;;
67028;SDS011;53934;52.142;11.738;2022-07-06T07:26:16;3.95;;;1.20;;
67028;SDS011;53934;52.142;11.738;2022-07-06T07:28:42;5.43;;;1.20;;
67028;SDS011;53934;52.142;11.738;2022-07-06T07:31:08;4.68;;;0.85;;
67028;SDS011;53934;52.142;11.738;2022-07-06T07:33:35;9.02;;;1.60;;
67028;SDS011;53934;52.142;11.738;2022-07-06T07:36:01;3.10;;;1.08;;
67028;SDS011;53934;52.142;11.738;2022-07-06T07:38:29;5.75;;;1.35;;
67028;SDS011;53934;52.142;11.738;2022-07-06T07:40:55;3.80;;;0.90;;
67028;SDS011;53934;52.142;11.738;2022-07-06T07:43:22;5.75;;;1.17;;
67028;SDS011;53934;52.142;11.738;2022-07-06T07:45:48;4.72;;;0.93;;
67028;SDS011;53934;52.142;11.738;2022-07-06T07:48:15;7.90;;;1.15;;
67028;SDS011;53934;52.142;11.738;2022-07-06T07:50:41;3.90;;;0.85;;
67028;SDS011;53934;52.142;11.738;2022-07-06T07:53:08;4.07;;;1.13;;
67028;SDS011;53934;52.142;11.738;2022-07-06T07:55:35;2.55;;;0.93;;
67028;SDS011;53934;52.142;11.738;2022-07-06T07:58:02;6.70;;;1.30;;
67028;SDS011;53934;52.142;11.738;2022-07-06T08:00:29;8.70;;;1.05;;
67028;SDS011;53934;52.142;11.738;2022-07-06T08:02:55;1.42;;;0.60;;
67028;SDS011;53934;52.142;11.738;2022-07-06T08:05:22;2.17;;;0.80;;
67028;SDS011;53934;52.142;11.738;2022-07-06T08:07:48;4.82;;;0.88;;
67028;SDS011;53934;52.142;11.738;2022-07-06T08:10:15;3.47;;;1.15;;
67028;SDS011;53934;52.142;11.738;2022-07-06T08:12:42;5.32;;;1.20;;
67028;SDS011;53934;52.142;11.738;2022-07-06T08:15:09;7.00;;;1.20;;
67028;SDS011;53934;52.142;11.738;2022-07-06T08:17:35;3.83;;;1.02;;
67028;SDS011;53934;52.142;11.738;2022-07-06T08:20:04;4.70;;;1.02;;
67028;SDS011;53934;52.142;11.738;2022-07-06T08:22:31;5.18;;;0.88;;
67028;SDS011;53934;52.142;11.738;2022-07-06T08:24:58;4.03;;;0.90;;
67028;SDS011;53934;52.142;11.738;2022-07-06T08:27:24;5.53;;;1.20;;
67028;SDS011;53934;52.142;11.738;2022-07-06T08:29:52;4.50;;;1.30;;
67028;SDS011;53934;52.142;11.738;2022-07-06T08:32:18;3.92;;;0.90;;
67028;SDS011;53934;52.142;11.738;2022-07-06T08:34:45;9.25;;;1.42;;
67028;SDS011;53934;52.142;11.738;2022-07-06T08:37:11;5.30;;;1.42;;
67028;SDS011;53934;52.142;11.738;2022-07-06T08:39:38;4.47;;;1.00;;
67028;SDS011;53934;52.142;11.738;2022-07-06T08:42:04;5.60;;;1.40;;
67028;SDS011;53934;52.142;11.738;2022-07-06T08:44:33;3.60;;;1.08;;
67028;SDS011;53934;52.142;11.738;2022-07-06T08:47:04;5.38;;;1.40;;
67028;SDS011;53934;52.142;11.738;2022-07-06T08:49:31;7.47;;;1.30;;
67028;SDS011;53934;52.142;11.738;2022-07-06T08:51:59;2.28;;;0.75;;
67028;SDS011;53934;52.142;11.738;2022-07-06T08:54:26;3.33;;;0.90;;
67028;SDS011;53934;52.142;11.738;2022-07-06T08:56:53;1.98;;;0.90;;
67028;SDS011;53934;52.142;11.738;2022-07-06T08:59:19;2.97;;;0.88;;
67028;SDS011;53934;52.142;11.738;2022-07-06T09:01:45;3.42;;;0.90;;
67028;SDS011;53934;52.142;11.738;2022-07-06T09:04:15;2.08;;;0.80;;
67028;SDS011;53934;52.142;11.738;2022-07-06T09:06:43;4.05;;;1.02;;
67028;SDS011;53934;52.142;11.738;2022-07-06T09:09:12;2.80;;;0.77;;
67028;SDS011;53934;52.142;11.738;2022-07-06T09:11:43;4.70;;;0.93;;
67028;SDS011;53934;52.142;11.738;2022-07-06T09:14:09;6.38;;;1.00;;
67028;SDS011;53934;52.142;11.738;2022-07-06T09:16:36;2.63;;;0.63;;
67028;SDS011;53934;52.142;11.738;2022-07-06T09:19:03;2.13;;;0.75;;
67028;SDS011;53934;52.142;11.738;2022-07-06T09:21:31;3.83;;;0.63;;
67028;SDS011;53934;52.142;11.738;2022-07-06T09:24:01;4.15;;;0.90;;
67028;SDS011;53934;52.142;11.738;2022-07-06T09:26:31;4.25;;;0.73;;
67028;SDS011;53934;52.142;11.738;2022-07-06T09:28:58;3.28;;;1.10;;
67028;SDS011;53934;52.142;11.738;2022-07-06T09:31:25;3.40;;;1.20;;
67028;SDS011;53934;52.142;11.738;2022-07-06T09:33:56;3.75;;;0.70;;
67028;SDS011;53934;52.142;11.738;2022-07-06T09:36:37;1.42;;;0.60;;
67028;SDS011;53934;52.142;11.738;2022-07-06T09:39:18;2.70;;;0.93;;
67028;SDS011;53934;52.142;11.738;2022-07-06T09:41:46;1.88;;;0.68;;
67028;SDS011;53934;52.142;11.738;2022-07-06T09:44:18;2.33;;;0.60;;
67028;SDS011;53934;52.142;11.738;2022-07-06T09:46:46;2.38;;;0.65;;
67028;SDS011;53934;52.142;11.738;2022-07-06T09:49:15;5.22;;;1.00;;
67028;SDS011;53934;52.142;11.738;2022-07-06T09:51:44;4.20;;;0.98;;
67028;SDS011;53934;52.142;11.738;2022-07-06T09:54:10;4.70;;;0.70;;
67028;SDS011;53934;52.142;11.738;2022-07-06T09:56:37;3.63;;;0.88;;
67028;SDS011;53934;52.142;11.738;2022-07-06T09:59:10;1.48;;;0.50;;
67028;SDS011;53934;52.142;11.738;2022-07-06T10:01:37;3.70;;;0.63;;
67028;SDS011;53934;52.142;11.738;2022-07-06T10:04:05;3.28;;;0.52;;
67028;SDS011;53934;52.142;11.738;2022-07-06T10:06:32;6.47;;;0.73;;
67028;SDS011;53934;52.142;11.738;2022-07-06T10:09:00;5.90;;;0.60;;
67028;SDS011;53934;52.142;11.738;2022-07-06T10:11:28;2.85;;;0.73;;
67028;SDS011;53934;52.142;11.738;2022-07-06T10:13:56;1.85;;;0.50;;
67028;SDS011;53934;52.142;11.738;2022-07-06T10:16:23;4.60;;;1.52;;
67028;SDS011;53934;52.142;11.738;2022-07-06T10:18:50;2.80;;;0.60;;
67028;SDS011;53934;52.142;11.738;2022-07-06T10:21:19;2.95;;;0.60;;
67028;SDS011;53934;52.142;11.738;2022-07-06T10:23:47;2.53;;;0.57;;
67028;SDS011;53934;52.142;11.738;2022-07-06T10:26:16;3.00;;;0.60;;
67028;SDS011;53934;52.142;11.738;2022-07-06T10:28:43;5.72;;;1.08;;
67028;SDS011;53934;52.142;11.738;2022-07-06T10:31:12;3.97;;;0.82;;
67028;SDS011;53934;52.142;11.738;2022-07-06T10:33:39;2.30;;;0.60;;
67028;SDS011;53934;52.142;11.738;2022-07-06T10:36:07;6.15;;;0.68;;
67028;SDS011;53934;52.142;11.738;2022-07-06T10:38:34;5.15;;;0.65;;
67028;SDS011;53934;52.142;11.738;2022-07-06T10:41:02;4.47;;;0.80;;
67028;SDS011;53934;52.142;11.738;2022-07-06T10:43:33;4.90;;;0.75;;
67028;SDS011;53934;52.142;11.738;2022-07-06T10:46:05;3.70;;;0.70;;
67028;SDS011;53934;52.142;11.738;2022-07-06T10:48:34;3.65;;;0.80;;
67028;SDS011;53934;52.142;11.738;2022-07-06T10:51:00;2.17;;;0.57;;
67028;SDS011;53934;52.142;11.738;2022-07-06T10:53:30;2.28;;;0.60;;
67028;SDS011;53934;52.142;11.738;2022-07-06T10:55:58;1.30;;;0.60;;
67028;SDS011;53934;52.142;11.738;2022-07-06T11:01:16;1.15;;;0.50;;
67028;SDS011;53934;52.142;11.738;2022-07-06T11:03:43;3.30;;;0.80;;
67028;SDS011;53934;52.142;11.738;2022-07-06T11:06:12;6.70;;;0.88;;
67028;SDS011;53934;52.142;11.738;2022-07-06T11:08:46;2.17;;;0.80;;
67028;SDS011;53934;52.142;11.738;2022-07-06T11:11:15;3.53;;;0.75;;
67028;SDS011;53934;52.142;11.738;2022-07-06T11:13:46;4.45;;;0.93;;
67028;SDS011;53934;52.142;11.738;2022-07-06T11:16:16;5.15;;;0.60;;
67028;SDS011;53934;52.142;11.738;2022-07-06T11:18:46;4.05;;;0.57;;
67028;SDS011;53934;52.142;11.738;2022-07-06T11:21:17;4.65;;;0.90;;
67028;SDS011;53934;52.142;11.738;2022-07-06T11:23:45;3.88;;;0.82;;
67028;SDS011;53934;52.142;11.738;2022-07-06T11:26:13;3.47;;;0.65;;
67028;SDS011;53934;52.142;11.738;2022-07-06T11:28:40;6.68;;;0.70;;
67028;SDS011;53934;52.142;11.738;2022-07-06T11:31:08;2.38;;;0.70;;
67028;SDS011;53934;52.142;11.738;2022-07-06T11:33:36;2.45;;;0.75;;
67028;SDS011;53934;52.142;11.738;2022-07-06T11:36:12;6.80;;;0.60;;
67028;SDS011;53934;52.142;11.738;2022-07-06T11:38:39;2.28;;;0.60;;
67028;SDS011;53934;52.142;11.738;2022-07-06T11:41:05;1.98;;;0.70;;
67028;SDS011;53934;52.142;11.738;2022-07-06T11:43:32;3.47;;;0.60;;
67028;SDS011;53934;52.142;11.738;2022-07-06T11:45:59;2.22;;;0.52;;
67028;SDS011;53934;52.142;11.738;2022-07-06T11:48:26;5.40;;;0.93;;
67028;SDS011;53934;52.142;11.738;2022-07-06T11:50:59;2.15;;;0.60;;
67028;SDS011;53934;52.142;11.738;2022-07-06T11:53:26;5.70;;;0.60;;
67028;SDS011;53934;52.142;11.738;2022-07-06T11:55:52;7.25;;;0.95;;
67028;SDS011;53934;52.142;11.738;2022-07-06T11:58:20;4.88;;;0.88;;
67028;SDS011;53934;52.142;11.738;2022-07-06T12:01:02;3.65;;;0.55;;
67028;SDS011;53934;52.142;11.738;2022-07-06T12:03:30;1.80;;;0.60;;
67028;SDS011;53934;52.142;11.738;2022-07-06T12:05:57;3.58;;;0.73;;
67028;SDS011;53934;52.142;11.738;2022-07-06T12:08:24;2.30;;;0.60;;
67028;SDS011;53934;52.142;11.738;2022-07-06T12:10:51;2.45;;;0.77;;
67028;SDS011;53934;52.142;11.738;2022-07-06T12:13:18;2.80;;;0.80;;
67028;SDS011;53934;52.142;11.738;2022-07-06T12:15:44;4.30;;;0.77;;
67028;SDS011;53934;52.142;11.738;2022-07-06T12:18:10;2.83;;;0.63;;
67028;SDS011;53934;52.142;11.738;2022-07-06T12:20:38;3.17;;;0.73;;
67028;SDS011;53934;52.142;11.738;2022-07-06T12:23:07;4.07;;;0.93;;
67028;SDS011;53934;52.142;11.738;2022-07-06T12:25:34;1.35;;;0.60;;
67028;SDS011;53934;52.142;11.738;2022-07-06T12:28:02;3.47;;;0.82;;
67028;SDS011;53934;52.142;11.738;2022-07-06T12:30:29;2.38;;;0.77;;
67028;SDS011;53934;52.142;11.738;2022-07-06T12:33:12;7.82;;;1.10;;
67028;SDS011;53934;52.142;11.738;2022-07-06T12:35:41;2.25;;;0.82;;
67028;SDS011;53934;52.142;11.738;2022-07-06T12:38:08;4.47;;;0.80;;
67028;SDS011;53934;52.142;11.738;2022-07-06T12:40:35;1.15;;;0.50;;
67028;SDS011;53934;52.142;11.738;2022-07-06T12:43:02;3.70;;;0.75;;
67028;SDS011;53934;52.142;11.738;2022-07-06T12:45:29;5.13;;;1.15;;
67028;SDS011;53934;52.142;11.738;2022-07-06T12:47:56;4.43;;;0.70;;
67028;SDS011;53934;52.142;11.738;2022-07-06T12:50:29;2.83;;;0.50;;
67028;SDS011;53934;52.142;11.738;2022-07-06T12:52:58;1.98;;;0.60;;
67028;SDS011;53934;52.142;11.738;2022-07-06T12:55:26;5.10;;;0.90;;
67028;SDS011;53934;52.142;11.738;2022-07-06T12:57:53;2.05;;;0.55;;
67028;SDS011;53934;52.142;11.738;2022-07-06T13:00:20;6.18;;;0.85;;
67028;SDS011;53934;52.142;11.738;2022-07-06T13:02:47;1.48;;;0.47;;
67028;SDS011;53934;52.142;11.738;2022-07-06T13:05:21;2.07;;;0.70;;
67028;SDS011;53934;52.142;11.738;2022-07-06T13:07:53;6.32;;;0.70;;
67028;SDS011;53934;52.142;11.738;2022-07-06T13:10:22;4.35;;;0.60;;
67028;SDS011;53934;52.142;11.738;2022-07-06T13:12:51;2.25;;;0.70;;
67028;SDS011;53934;52.142;11.738;2022-07-06T13:15:18;2.80;;;0.75;;
67028;SDS011;53934;52.142;11.738;2022-07-06T13:17:44;4.03;;;0.90;;
67028;SDS011;53934;52.142;11.738;2022-07-06T13:20:12;2.97;;;0.63;;
67028;SDS011;53934;52.142;11.738;2022-07-06T13:22:41;3.20;;;0.68;;
67028;SDS011;53934;52.142;11.738;2022-07-06T13:25:08;1.77;;;0.40;;
67028;SDS011;53934;52.142;11.738;2022-07-06T13:27:36;5.18;;;0.80;;
67028;SDS011;53934;52.142;11.738;2022-07-06T13:30:02;4.78;;;0.65;;
67028;SDS011;53934;52.142;11.738;2022-07-06T13:32:29;5.32;;;0.70;;
67028;SDS011;53934;52.142;11.738;2022-07-06T13:34:57;2.83;;;0.90;;
67028;SDS011;53934;52.142;11.738;2022-07-06T13:37:24;4.65;;;0.82;;
67028;SDS011;53934;52.142;11.738;2022-07-06T13:39:50;3.90;;;0.80;;
67028;SDS011;53934;52.142;11.738;2022-07-06T13:42:16;4.90;;;0.90;;
67028;SDS011;53934;52.142;11.738;2022-07-06T13:44:44;2.92;;;0.70;;
67028;SDS011;53934;52.142;11.738;2022-07-06T13:47:10;2.85;;;0.70;;
67028;SDS011;53934;52.142;11.738;2022-07-06T13:49:37;3.15;;;0.88;;
67028;SDS011;53934;52.142;11.738;2022-07-06T13:52:03;1.83;;;0.63;;
67028;SDS011;53934;52.142;11.738;2022-07-06T13:54:31;4.35;;;1.10;;
67028;SDS011;53934;52.142;11.738;2022-07-06T13:57:01;2.63;;;0.73;;
67028;SDS011;53934;52.142;11.738;2022-07-06T13:59:28;3.63;;;0.77;;
67028;SDS011;53934;52.142;11.738;2022-07-06T14:01:56;3.20;;;0.70;;
67028;SDS011;53934;52.142;11.738;2022-07-06T14:04:22;4.57;;;0.90;;
67028;SDS011;53934;52.142;11.738;2022-07-06T14:06:48;5.88;;;1.00;;
67028;SDS011;53934;52.142;11.738;2022-07-06T14:09:15;3.50;;;0.70;;
67028;SDS011;53934;52.142;11.738;2022-07-06T14:11:41;2.97;;;0.57;;
67028;SDS011;53934;52.142;11.738;2022-07-06T14:14:08;3.97;;;0.90;;
67028;SDS011;53934;52.142;11.738;2022-07-06T14:16:34;3.33;;;0.60;;
67028;SDS011;53934;52.142;11.738;2022-07-06T14:19:03;3.03;;;0.73;;
67028;SDS011;53934;52.142;11.738;2022-07-06T14:21:29;1.90;;;0.52;;
67028;SDS011;53934;52.142;11.738;2022-07-06T14:23:55;5.05;;;0.98;;
67028;SDS011;53934;52.142;11.738;2022-07-06T14:26:22;3.08;;;0.80;;
67028;SDS011;53934;52.142;11.738;2022-07-06T14:28:48;4.13;;;0.80;;
67028;SDS011;53934;52.142;11.738;2022-07-06T14:31:14;2.45;;;0.60;;
67028;SDS011;53934;52.142;11.738;2022-07-06T14:33:41;4.03;;;0.80;;
67028;SDS011;53934;52.142;11.738;2022-07-06T14:36:08;2.33;;;0.68;;
67028;SDS011;53934;52.142;11.738;2022-07-06T14:38:35;3.65;;;0.60;;